sensor_id;sensor_type;location;lat;lon;timestamp;pressure;altitude;pressure_sealevel;temperature;humidity
25944;BME280;13742;49.306;8.636;2023-03-01T00:00:23;101502.75;;;1.85;59.95
25944;BME280;13742;49.306;8.636;2023-03-01T00:01:27;101499.80;;;1.87;59.85
25944;BME280;13742;49.306;8.636;2023-03-01T00:02:23;101495.78;;;1.85;59.92
25944;BME280;13742;49.306;8.636;2023-03-01T00:03:23;101496.44;;;1.85;59.79
25944;BME280;13742;49.306;8.636;2023-03-01T00:04:23;101495.02;;;1.85;59.79
25944;BME280;13742;49.306;8.636;2023-03-01T00:05:23;101495.81;;;1.83;59.96
25944;BME280;13742;49.306;8.636;2023-03-01T00:06:23;101492.60;;;1.84;60.10
25944;BME280;13742;49.306;8.636;2023-03-01T00:07:23;101495.48;;;1.83;60.20
25944;BME280;13742;49.306;8.636;2023-03-01T00:08:23;101496.39;;;1.83;60.23
25944;BME280;13742;49.306;8.636;2023-03-01T00:09:23;101493.52;;;1.82;60.19
25944;BME280;13742;49.306;8.636;2023-03-01T00:10:23;101494.27;;;1.83;60.16
25944;BME280;13742;49.306;8.636;2023-03-01T00:11:24;101495.81;;;1.83;60.06
25944;BME280;13742;49.306;8.636;2023-03-01T00:12:23;101493.25;;;1.83;60.28
25944;BME280;13742;49.306;8.636;2023-03-01T00:13:23;101499.44;;;1.83;60.31
25944;BME280;13742;49.306;8.636;2023-03-01T00:14:23;101497.36;;;1.83;60.40
25944;BME280;13742;49.306;8.636;2023-03-01T00:15:23;101493.23;;;1.81;60.38
25944;BME280;13742;49.306;8.636;2023-03-01T00:16:24;101489.84;;;1.84;60.33
25944;BME280;13742;49.306;8.636;2023-03-01T00:17:23;101483.97;;;1.84;60.32
25944;BME280;13742;49.306;8.636;2023-03-01T00:18:23;101487.06;;;1.83;60.19
25944;BME280;13742;49.306;8.636;2023-03-01T00:19:23;101489.70;;;1.82;60.37
25944;BME280;13742;49.306;8.636;2023-03-01T00:20:23;101486.97;;;1.82;60.32
25944;BME280;13742;49.306;8.636;2023-03-01T00:21:23;101493.48;;;1.82;60.27
25944;BME280;13742;49.306;8.636;2023-03-01T00:22:23;101493.52;;;1.81;60.48
25944;BME280;13742;49.306;8.636;2023-03-01T00:23:23;101495.83;;;1.80;60.45
25944;BME280;13742;49.306;8.636;2023-03-01T00:24:23;101495.66;;;1.79;60.64
25944;BME280;13742;49.306;8.636;2023-03-01T00:25:23;101495.98;;;1.80;60.49
25944;BME280;13742;49.306;8.636;2023-03-01T00:26:23;101496.77;;;1.80;60.65
25944;BME280;13742;49.306;8.636;2023-03-01T00:27:23;101497.17;;;1.80;60.69
25944;BME280;13742;49.306;8.636;2023-03-01T00:28:23;101497.66;;;1.84;60.65
25944;BME280;13742;49.306;8.636;2023-03-01T00:29:23;101497.13;;;1.84;60.18
25944;BME280;13742;49.306;8.636;2023-03-01T00:30:23;101497.44;;;1.78;60.73
25944;BME280;13742;49.306;8.636;2023-03-01T00:31:24;101499.84;;;1.78;60.82
25944;BME280;13742;49.306;8.636;2023-03-01T00:32:23;101500.45;;;1.78;60.67
25944;BME280;13742;49.306;8.636;2023-03-01T00:33:23;101500.23;;;1.76;60.81
25944;BME280;13742;49.306;8.636;2023-03-01T00:34:23;101499.15;;;1.78;60.85
25944;BME280;13742;49.306;8.636;2023-03-01T00:35:23;101497.34;;;1.77;60.52
25944;BME280;13742;49.306;8.636;2023-03-01T00:36:24;101498.16;;;1.77;60.49
25944;BME280;13742;49.306;8.636;2023-03-01T00:37:23;101499.86;;;1.76;60.71
25944;BME280;13742;49.306;8.636;2023-03-01T00:38:23;101494.73;;;1.76;60.77
25944;BME280;13742;49.306;8.636;2023-03-01T00:39:23;101496.34;;;1.75;60.68
25944;BME280;13742;49.306;8.636;2023-03-01T00:40:24;101499.22;;;1.72;60.92
25944;BME280;13742;49.306;8.636;2023-03-01T00:41:23;101502.23;;;1.72;61.03
25944;BME280;13742;49.306;8.636;2023-03-01T00:42:23;101497.33;;;1.71;61.16
25944;BME280;13742;49.306;8.636;2023-03-01T00:43:23;101498.72;;;1.72;60.95
25944;BME280;13742;49.306;8.636;2023-03-01T00:44:23;101496.18;;;1.70;61.13
25944;BME280;13742;49.306;8.636;2023-03-01T00:45:23;101497.64;;;1.70;61.10
25944;BME280;13742;49.306;8.636;2023-03-01T00:47:29;101499.61;;;1.66;61.31
25944;BME280;13742;49.306;8.636;2023-03-01T00:48:23;101498.89;;;1.68;61.15
25944;BME280;13742;49.306;8.636;2023-03-01T00:49:24;101500.45;;;1.64;61.51
25944;BME280;13742;49.306;8.636;2023-03-01T00:50:23;101500.58;;;1.65;61.38
25944;BME280;13742;49.306;8.636;2023-03-01T00:51:24;101504.44;;;1.65;61.34
25944;BME280;13742;49.306;8.636;2023-03-01T00:52:23;101500.48;;;1.63;61.43
25944;BME280;13742;49.306;8.636;2023-03-01T00:53:23;101501.49;;;1.63;61.54
25944;BME280;13742;49.306;8.636;2023-03-01T00:54:23;101504.45;;;1.62;61.63
25944;BME280;13742;49.306;8.636;2023-03-01T00:55:23;101503.61;;;1.63;61.75
25944;BME280;13742;49.306;8.636;2023-03-01T00:56:23;101504.28;;;1.62;61.68
25944;BME280;13742;49.306;8.636;2023-03-01T00:57:23;101506.19;;;1.61;61.56
25944;BME280;13742;49.306;8.636;2023-03-01T00:58:23;101506.31;;;1.60;61.72
25944;BME280;13742;49.306;8.636;2023-03-01T00:59:23;101507.50;;;1.62;61.85
25944;BME280;13742;49.306;8.636;2023-03-01T01:00:23;101511.82;;;1.63;61.86
25944;BME280;13742;49.306;8.636;2023-03-01T01:01:26;101508.47;;;1.61;61.87
25944;BME280;13742;49.306;8.636;2023-03-01T01:02:23;101508.83;;;1.60;61.89
25944;BME280;13742;49.306;8.636;2023-03-01T01:03:24;101507.23;;;1.59;61.92
25944;BME280;13742;49.306;8.636;2023-03-01T01:04:23;101505.63;;;1.61;61.64
25944;BME280;13742;49.306;8.636;2023-03-01T01:05:23;101506.08;;;1.62;61.91
25944;BME280;13742;49.306;8.636;2023-03-01T01:06:26;101505.31;;;1.59;61.96
25944;BME280;13742;49.306;8.636;2023-03-01T01:07:23;101510.16;;;1.60;61.90
25944;BME280;13742;49.306;8.636;2023-03-01T01:08:23;101513.38;;;1.60;61.62
25944;BME280;13742;49.306;8.636;2023-03-01T01:09:23;101505.38;;;1.58;61.80
25944;BME280;13742;49.306;8.636;2023-03-01T01:10:23;101505.66;;;1.56;61.74
25944;BME280;13742;49.306;8.636;2023-03-01T01:11:23;101505.08;;;1.56;61.88
25944;BME280;13742;49.306;8.636;2023-03-01T01:12:23;101503.52;;;1.54;62.04
25944;BME280;13742;49.306;8.636;2023-03-01T01:13:23;101502.42;;;1.54;61.91
25944;BME280;13742;49.306;8.636;2023-03-01T01:14:23;101503.59;;;1.54;62.10
25944;BME280;13742;49.306;8.636;2023-03-01T01:15:23;101499.43;;;1.52;61.99
25944;BME280;13742;49.306;8.636;2023-03-01T01:16:24;101500.77;;;1.51;61.96
25944;BME280;13742;49.306;8.636;2023-03-01T01:17:23;101499.94;;;1.51;62.25
25944;BME280;13742;49.306;8.636;2023-03-01T01:18:23;101496.84;;;1.51;61.86
25944;BME280;13742;49.306;8.636;2023-03-01T01:19:23;101494.72;;;1.49;62.16
25944;BME280;13742;49.306;8.636;2023-03-01T01:20:23;101496.86;;;1.51;62.09
25944;BME280;13742;49.306;8.636;2023-03-01T01:21:23;101493.68;;;1.51;62.15
25944;BME280;13742;49.306;8.636;2023-03-01T01:22:23;101489.89;;;1.50;61.95
25944;BME280;13742;49.306;8.636;2023-03-01T01:23:23;101485.53;;;1.49;61.79
25944;BME280;13742;49.306;8.636;2023-03-01T01:24:23;101483.56;;;1.49;61.88
25944;BME280;13742;49.306;8.636;2023-03-01T01:25:25;101477.11;;;1.50;62.18
25944;BME280;13742;49.306;8.636;2023-03-01T01:26:24;101478.94;;;1.49;61.90
25944;BME280;13742;49.306;8.636;2023-03-01T01:27:23;101471.41;;;1.49;62.05
25944;BME280;13742;49.306;8.636;2023-03-01T01:28:23;101474.41;;;1.48;62.37
25944;BME280;13742;49.306;8.636;2023-03-01T01:29:23;101467.19;;;1.47;62.28
25944;BME280;13742;49.306;8.636;2023-03-01T01:30:23;101465.00;;;1.47;61.99
25944;BME280;13742;49.306;8.636;2023-03-01T01:31:26;101462.50;;;1.46;62.18
25944;BME280;13742;49.306;8.636;2023-03-01T01:32:23;101460.56;;;1.46;62.21
25944;BME280;13742;49.306;8.636;2023-03-01T01:33:23;101458.21;;;1.43;62.21
25944;BME280;13742;49.306;8.636;2023-03-01T01:34:23;101456.63;;;1.43;62.00
25944;BME280;13742;49.306;8.636;2023-03-01T01:35:23;101454.66;;;1.42;62.29
25944;BME280;13742;49.306;8.636;2023-03-01T01:36:23;101457.14;;;1.42;62.16
25944;BME280;13742;49.306;8.636;2023-03-01T01:37:23;101454.16;;;1.41;62.40
25944;BME280;13742;49.306;8.636;2023-03-01T01:38:23;101454.72;;;1.40;62.40
25944;BME280;13742;49.306;8.636;2023-03-01T01:39:23;101452.36;;;1.32;63.08
25944;BME280;13742;49.306;8.636;2023-03-01T01:40:23;101454.08;;;1.33;63.05
25944;BME280;13742;49.306;8.636;2023-03-01T01:41:24;101455.32;;;1.35;63.13
25944;BME280;13742;49.306;8.636;2023-03-01T01:42:23;101454.94;;;1.33;62.88
25944;BME280;13742;49.306;8.636;2023-03-01T01:43:24;101455.84;;;1.34;62.98
25944;BME280;13742;49.306;8.636;2023-03-01T01:44:24;101456.81;;;1.33;62.97
25944;BME280;13742;49.306;8.636;2023-03-01T01:45:33;101458.28;;;1.34;62.78
25944;BME280;13742;49.306;8.636;2023-03-01T01:47:23;101457.89;;;1.32;62.93
25944;BME280;13742;49.306;8.636;2023-03-01T01:48:23;101459.84;;;1.32;62.71
25944;BME280;13742;49.306;8.636;2023-03-01T01:49:27;101453.86;;;1.31;62.92
25944;BME280;13742;49.306;8.636;2023-03-01T01:50:23;101455.16;;;1.31;62.68
25944;BME280;13742;49.306;8.636;2023-03-01T01:51:24;101453.33;;;1.31;63.04
25944;BME280;13742;49.306;8.636;2023-03-01T01:52:25;101448.16;;;1.31;62.72
25944;BME280;13742;49.306;8.636;2023-03-01T01:53:23;101448.58;;;1.31;62.63
25944;BME280;13742;49.306;8.636;2023-03-01T01:54:29;101450.73;;;1.32;62.92
25944;BME280;13742;49.306;8.636;2023-03-01T01:55:24;101445.89;;;1.31;62.77
25944;BME280;13742;49.306;8.636;2023-03-01T01:56:23;101447.48;;;1.32;63.13
25944;BME280;13742;49.306;8.636;2023-03-01T01:57:27;101445.75;;;1.30;63.14
25944;BME280;13742;49.306;8.636;2023-03-01T01:58:23;101446.05;;;1.30;63.13
25944;BME280;13742;49.306;8.636;2023-03-01T01:59:24;101437.50;;;1.29;63.11
25944;BME280;13742;49.306;8.636;2023-03-01T02:00:24;101442.83;;;1.30;63.05
25944;BME280;13742;49.306;8.636;2023-03-01T02:01:23;101435.79;;;1.30;62.94
25944;BME280;13742;49.306;8.636;2023-03-01T02:02:23;101438.50;;;1.33;63.28
25944;BME280;13742;49.306;8.636;2023-03-01T02:03:24;101435.09;;;1.33;63.34
25944;BME280;13742;49.306;8.636;2023-03-01T02:04:23;101434.86;;;1.35;63.05
25944;BME280;13742;49.306;8.636;2023-03-01T02:05:25;101432.58;;;1.34;62.93
25944;BME280;13742;49.306;8.636;2023-03-01T02:07:23;101425.95;;;1.34;63.21
25944;BME280;13742;49.306;8.636;2023-03-01T02:08:23;101426.80;;;1.33;63.05
25944;BME280;13742;49.306;8.636;2023-03-01T02:09:23;101429.03;;;1.34;63.34
25944;BME280;13742;49.306;8.636;2023-03-01T02:10:23;101422.21;;;1.34;62.83
25944;BME280;13742;49.306;8.636;2023-03-01T02:11:23;101421.00;;;1.31;63.32
25944;BME280;13742;49.306;8.636;2023-03-01T02:12:23;101421.02;;;1.29;63.55
25944;BME280;13742;49.306;8.636;2023-03-01T02:13:23;101416.30;;;1.34;63.54
25944;BME280;13742;49.306;8.636;2023-03-01T02:14:23;101416.70;;;1.33;63.35
25944;BME280;13742;49.306;8.636;2023-03-01T02:15:23;101415.81;;;1.30;63.58
25944;BME280;13742;49.306;8.636;2023-03-01T02:16:23;101412.41;;;1.26;63.49
25944;BME280;13742;49.306;8.636;2023-03-01T02:17:23;101415.16;;;1.29;63.58
25944;BME280;13742;49.306;8.636;2023-03-01T02:18:23;101412.13;;;1.26;63.31
25944;BME280;13742;49.306;8.636;2023-03-01T02:19:29;101412.77;;;1.26;63.14
25944;BME280;13742;49.306;8.636;2023-03-01T02:20:26;101408.42;;;1.26;62.92
25944;BME280;13742;49.306;8.636;2023-03-01T02:22:24;101406.58;;;1.24;63.34
25944;BME280;13742;49.306;8.636;2023-03-01T02:23:23;101407.78;;;1.23;63.05
25944;BME280;13742;49.306;8.636;2023-03-01T02:24:28;101408.84;;;1.23;63.47
25944;BME280;13742;49.306;8.636;2023-03-01T02:25:27;101410.03;;;1.24;63.54
25944;BME280;13742;49.306;8.636;2023-03-01T02:26:29;101406.98;;;1.24;63.28
25944;BME280;13742;49.306;8.636;2023-03-01T02:27:26;101405.68;;;1.24;63.24
25944;BME280;13742;49.306;8.636;2023-03-01T02:28:32;101405.98;;;1.26;63.42
25944;BME280;13742;49.306;8.636;2023-03-01T02:29:23;101408.88;;;1.27;63.31
25944;BME280;13742;49.306;8.636;2023-03-01T02:30:23;101405.69;;;1.29;63.41
25944;BME280;13742;49.306;8.636;2023-03-01T02:31:28;101408.89;;;1.28;63.12
25944;BME280;13742;49.306;8.636;2023-03-01T02:32:24;101403.59;;;1.27;62.82
25944;BME280;13742;49.306;8.636;2023-03-01T02:33:22;101405.92;;;1.28;63.27
25944;BME280;13742;49.306;8.636;2023-03-01T02:34:25;101407.58;;;1.32;63.59
25944;BME280;13742;49.306;8.636;2023-03-01T02:35:22;101406.23;;;1.30;63.04
25944;BME280;13742;49.306;8.636;2023-03-01T02:36:24;101406.66;;;1.29;63.16
25944;BME280;13742;49.306;8.636;2023-03-01T02:37:24;101397.92;;;1.30;63.38
25944;BME280;13742;49.306;8.636;2023-03-01T02:38:23;101398.22;;;1.31;63.24
25944;BME280;13742;49.306;8.636;2023-03-01T02:40:22;101396.09;;;1.29;63.05
25944;BME280;13742;49.306;8.636;2023-03-01T02:41:23;101398.93;;;1.29;63.13
25944;BME280;13742;49.306;8.636;2023-03-01T02:42:23;101397.29;;;1.27;63.46
25944;BME280;13742;49.306;8.636;2023-03-01T02:43:23;101393.41;;;1.25;63.47
25944;BME280;13742;49.306;8.636;2023-03-01T02:44:23;101396.16;;;1.24;63.35
25944;BME280;13742;49.306;8.636;2023-03-01T02:45:23;101390.06;;;1.19;63.35
25944;BME280;13742;49.306;8.636;2023-03-01T02:46:24;101391.75;;;1.17;63.60
25944;BME280;13742;49.306;8.636;2023-03-01T02:47:23;101394.83;;;1.16;63.56
25944;BME280;13742;49.306;8.636;2023-03-01T02:48:22;101390.57;;;1.13;63.58
25944;BME280;13742;49.306;8.636;2023-03-01T02:52:26;101389.27;;;1.08;63.51
25944;BME280;13742;49.306;8.636;2023-03-01T02:54:28;101386.48;;;1.07;63.75
25944;BME280;13742;49.306;8.636;2023-03-01T02:55:23;101387.11;;;1.04;63.86
25944;BME280;13742;49.306;8.636;2023-03-01T02:56:22;101387.45;;;1.02;64.17
25944;BME280;13742;49.306;8.636;2023-03-01T02:57:23;101384.78;;;1.04;63.95
25944;BME280;13742;49.306;8.636;2023-03-01T02:58:22;101381.27;;;1.02;64.31
25944;BME280;13742;49.306;8.636;2023-03-01T02:59:24;101380.33;;;1.02;64.31
25944;BME280;13742;49.306;8.636;2023-03-01T03:00:24;101375.89;;;1.04;64.46
25944;BME280;13742;49.306;8.636;2023-03-01T03:01:22;101376.44;;;1.03;64.14
25944;BME280;13742;49.306;8.636;2023-03-01T03:02:35;101374.81;;;1.03;64.21
25944;BME280;13742;49.306;8.636;2023-03-01T03:03:23;101370.72;;;1.00;64.19
25944;BME280;13742;49.306;8.636;2023-03-01T03:04:22;101370.95;;;0.99;64.32
25944;BME280;13742;49.306;8.636;2023-03-01T03:05:24;101371.08;;;0.99;64.17
25944;BME280;13742;49.306;8.636;2023-03-01T03:06:22;101373.44;;;0.99;64.39
25944;BME280;13742;49.306;8.636;2023-03-01T03:07:23;101369.67;;;0.96;64.34
25944;BME280;13742;49.306;8.636;2023-03-01T03:08:23;101373.05;;;0.97;64.52
25944;BME280;13742;49.306;8.636;2023-03-01T03:09:22;101369.34;;;0.93;64.92
25944;BME280;13742;49.306;8.636;2023-03-01T03:10:24;101368.91;;;0.97;64.50
25944;BME280;13742;49.306;8.636;2023-03-01T03:11:23;101365.79;;;0.99;64.81
25944;BME280;13742;49.306;8.636;2023-03-01T03:12:22;101366.75;;;0.97;64.47
25944;BME280;13742;49.306;8.636;2023-03-01T03:13:28;101368.73;;;0.97;64.46
25944;BME280;13742;49.306;8.636;2023-03-01T03:14:23;101361.18;;;0.97;64.32
25944;BME280;13742;49.306;8.636;2023-03-01T03:15:23;101357.90;;;0.94;64.46
25944;BME280;13742;49.306;8.636;2023-03-01T03:16:23;101357.23;;;0.93;64.40
25944;BME280;13742;49.306;8.636;2023-03-01T03:17:22;101357.73;;;0.90;64.73
25944;BME280;13742;49.306;8.636;2023-03-01T03:18:23;101356.25;;;0.88;64.67
25944;BME280;13742;49.306;8.636;2023-03-01T03:19:22;101358.59;;;0.91;64.64
25944;BME280;13742;49.306;8.636;2023-03-01T03:20:23;101357.62;;;0.91;64.65
25944;BME280;13742;49.306;8.636;2023-03-01T03:21:22;101354.13;;;0.88;64.42
25944;BME280;13742;49.306;8.636;2023-03-01T03:22:22;101353.80;;;0.87;64.54
25944;BME280;13742;49.306;8.636;2023-03-01T03:23:23;101352.69;;;0.86;64.78
25944;BME280;13742;49.306;8.636;2023-03-01T03:24:22;101351.59;;;0.86;65.20
25944;BME280;13742;49.306;8.636;2023-03-01T03:25:22;101350.18;;;0.86;64.86
25944;BME280;13742;49.306;8.636;2023-03-01T03:26:22;101350.16;;;0.84;65.02
25944;BME280;13742;49.306;8.636;2023-03-01T03:27:22;101347.42;;;0.83;64.72
25944;BME280;13742;49.306;8.636;2023-03-01T03:28:22;101348.34;;;0.81;64.97
25944;BME280;13742;49.306;8.636;2023-03-01T03:29:22;101349.88;;;0.78;65.42
25944;BME280;13742;49.306;8.636;2023-03-01T03:30:28;101350.86;;;0.78;65.28
25944;BME280;13742;49.306;8.636;2023-03-01T03:31:23;101348.38;;;0.77;65.06
25944;BME280;13742;49.306;8.636;2023-03-01T03:32:22;101352.75;;;0.75;65.30
25944;BME280;13742;49.306;8.636;2023-03-01T03:33:22;101356.58;;;0.76;64.97
25944;BME280;13742;49.306;8.636;2023-03-01T03:34:23;101356.80;;;0.75;65.26
25944;BME280;13742;49.306;8.636;2023-03-01T03:35:29;101355.17;;;0.74;65.17
25944;BME280;13742;49.306;8.636;2023-03-01T03:36:23;101354.80;;;0.74;64.89
25944;BME280;13742;49.306;8.636;2023-03-01T03:37:27;101352.73;;;0.74;65.46
25944;BME280;13742;49.306;8.636;2023-03-01T03:38:23;101350.80;;;0.72;65.50
25944;BME280;13742;49.306;8.636;2023-03-01T03:39:23;101350.13;;;0.74;65.39
25944;BME280;13742;49.306;8.636;2023-03-01T03:40:23;101352.27;;;0.77;65.62
25944;BME280;13742;49.306;8.636;2023-03-01T03:41:22;101349.03;;;0.77;65.38
25944;BME280;13742;49.306;8.636;2023-03-01T03:42:22;101349.54;;;0.79;65.42
25944;BME280;13742;49.306;8.636;2023-03-01T03:43:22;101349.28;;;0.77;65.37
25944;BME280;13742;49.306;8.636;2023-03-01T03:44:22;101348.61;;;0.77;65.24
25944;BME280;13742;49.306;8.636;2023-03-01T03:45:23;101349.30;;;0.76;65.17
25944;BME280;13742;49.306;8.636;2023-03-01T03:46:22;101347.78;;;0.75;65.20
25944;BME280;13742;49.306;8.636;2023-03-01T03:47:22;101347.37;;;0.74;65.38
25944;BME280;13742;49.306;8.636;2023-03-01T03:48:23;101347.91;;;0.74;65.40
25944;BME280;13742;49.306;8.636;2023-03-01T03:49:22;101344.64;;;0.73;65.49
25944;BME280;13742;49.306;8.636;2023-03-01T03:50:22;101345.34;;;0.71;65.63
25944;BME280;13742;49.306;8.636;2023-03-01T03:51:22;101346.80;;;0.73;65.74
25944;BME280;13742;49.306;8.636;2023-03-01T03:52:22;101344.89;;;0.74;65.66
25944;BME280;13742;49.306;8.636;2023-03-01T03:53:24;101344.05;;;0.75;65.40
25944;BME280;13742;49.306;8.636;2023-03-01T03:54:22;101338.88;;;0.74;65.23
25944;BME280;13742;49.306;8.636;2023-03-01T03:55:22;101340.92;;;0.72;65.82
25944;BME280;13742;49.306;8.636;2023-03-01T03:56:25;101334.95;;;0.72;65.47
25944;BME280;13742;49.306;8.636;2023-03-01T03:57:22;101337.15;;;0.72;65.85
25944;BME280;13742;49.306;8.636;2023-03-01T03:58:23;101337.08;;;0.77;65.92
25944;BME280;13742;49.306;8.636;2023-03-01T03:59:22;101332.88;;;0.75;65.84
25944;BME280;13742;49.306;8.636;2023-03-01T04:00:23;101336.39;;;0.73;65.65
25944;BME280;13742;49.306;8.636;2023-03-01T04:01:22;101333.16;;;0.67;66.14
25944;BME280;13742;49.306;8.636;2023-03-01T04:02:24;101332.91;;;0.67;65.93
25944;BME280;13742;49.306;8.636;2023-03-01T04:03:23;101332.52;;;0.69;66.09
25944;BME280;13742;49.306;8.636;2023-03-01T04:04:22;101329.17;;;0.63;66.35
25944;BME280;13742;49.306;8.636;2023-03-01T04:05:23;101326.34;;;0.65;65.89
25944;BME280;13742;49.306;8.636;2023-03-01T04:06:22;101325.38;;;0.62;66.07
25944;BME280;13742;49.306;8.636;2023-03-01T04:07:22;101327.19;;;0.61;66.01
25944;BME280;13742;49.306;8.636;2023-03-01T04:08:23;101324.44;;;0.61;66.17
25944;BME280;13742;49.306;8.636;2023-03-01T04:09:22;101323.41;;;0.63;66.41
25944;BME280;13742;49.306;8.636;2023-03-01T04:10:22;101328.81;;;0.61;66.17
25944;BME280;13742;49.306;8.636;2023-03-01T04:11:25;101323.45;;;0.61;66.30
25944;BME280;13742;49.306;8.636;2023-03-01T04:12:23;101324.06;;;0.60;66.20
25944;BME280;13742;49.306;8.636;2023-03-01T04:13:23;101322.05;;;0.59;66.10
25944;BME280;13742;49.306;8.636;2023-03-01T04:14:22;101324.19;;;0.61;65.98
25944;BME280;13742;49.306;8.636;2023-03-01T04:15:24;101318.59;;;0.61;65.98
25944;BME280;13742;49.306;8.636;2023-03-01T04:16:23;101322.98;;;0.65;66.14
25944;BME280;13742;49.306;8.636;2023-03-01T04:17:22;101319.94;;;0.66;66.01
25944;BME280;13742;49.306;8.636;2023-03-01T04:18:23;101322.42;;;0.66;65.48
25944;BME280;13742;49.306;8.636;2023-03-01T04:19:22;101324.88;;;0.68;65.85
25944;BME280;13742;49.306;8.636;2023-03-01T04:20:29;101321.85;;;0.70;65.93
25944;BME280;13742;49.306;8.636;2023-03-01T04:21:22;101325.63;;;0.70;65.54
25944;BME280;13742;49.306;8.636;2023-03-01T04:22:22;101325.28;;;0.72;65.70
25944;BME280;13742;49.306;8.636;2023-03-01T04:23:22;101324.23;;;0.72;65.58
25944;BME280;13742;49.306;8.636;2023-03-01T04:24:22;101324.84;;;0.72;65.38
25944;BME280;13742;49.306;8.636;2023-03-01T04:25:23;101325.45;;;0.72;65.32
25944;BME280;13742;49.306;8.636;2023-03-01T04:26:22;101325.78;;;0.73;65.34
25944;BME280;13742;49.306;8.636;2023-03-01T04:27:22;101324.13;;;0.74;65.42
25944;BME280;13742;49.306;8.636;2023-03-01T04:28:25;101322.84;;;0.75;65.40
25944;BME280;13742;49.306;8.636;2023-03-01T04:29:22;101325.33;;;0.76;65.22
25944;BME280;13742;49.306;8.636;2023-03-01T04:30:25;101326.48;;;0.78;65.41
25944;BME280;13742;49.306;8.636;2023-03-01T04:31:22;101327.19;;;0.79;65.63
25944;BME280;13742;49.306;8.636;2023-03-01T04:32:22;101322.64;;;0.80;65.70
25944;BME280;13742;49.306;8.636;2023-03-01T04:33:23;101323.28;;;0.79;65.26
25944;BME280;13742;49.306;8.636;2023-03-01T04:34:22;101324.27;;;0.81;65.59
25944;BME280;13742;49.306;8.636;2023-03-01T04:35:22;101321.34;;;0.81;65.32
25944;BME280;13742;49.306;8.636;2023-03-01T04:36:24;101325.30;;;0.81;65.38
25944;BME280;13742;49.306;8.636;2023-03-01T04:37:23;101324.69;;;0.82;65.72
25944;BME280;13742;49.306;8.636;2023-03-01T04:38:22;101325.47;;;0.83;65.55
25944;BME280;13742;49.306;8.636;2023-03-01T04:39:22;101329.88;;;0.84;65.56
25944;BME280;13742;49.306;8.636;2023-03-01T04:40:22;101330.81;;;0.84;65.77
25944;BME280;13742;49.306;8.636;2023-03-01T04:41:23;101329.47;;;0.80;65.29
25944;BME280;13742;49.306;8.636;2023-03-01T04:42:22;101327.84;;;0.80;65.39
25944;BME280;13742;49.306;8.636;2023-03-01T04:43:22;101329.95;;;0.79;65.13
25944;BME280;13742;49.306;8.636;2023-03-01T04:44:22;101326.92;;;0.78;65.21
25944;BME280;13742;49.306;8.636;2023-03-01T04:45:22;101326.63;;;0.76;65.11
25944;BME280;13742;49.306;8.636;2023-03-01T04:46:22;101331.42;;;0.76;65.42
25944;BME280;13742;49.306;8.636;2023-03-01T04:47:22;101331.57;;;0.79;65.77
25944;BME280;13742;49.306;8.636;2023-03-01T04:48:22;101333.33;;;0.76;65.84
25944;BME280;13742;49.306;8.636;2023-03-01T04:49:22;101331.67;;;0.73;65.44
25944;BME280;13742;49.306;8.636;2023-03-01T04:50:23;101330.91;;;0.66;66.10
25944;BME280;13742;49.306;8.636;2023-03-01T04:51:22;101329.52;;;0.61;66.08
25944;BME280;13742;49.306;8.636;2023-03-01T04:52:22;101329.92;;;0.62;65.92
25944;BME280;13742;49.306;8.636;2023-03-01T04:53:22;101331.80;;;0.62;65.97
25944;BME280;13742;49.306;8.636;2023-03-01T04:54:22;101329.77;;;0.62;66.14
25944;BME280;13742;49.306;8.636;2023-03-01T04:55:26;101328.34;;;0.65;66.18
25944;BME280;13742;49.306;8.636;2023-03-01T04:56:22;101328.30;;;0.57;66.41
25944;BME280;13742;49.306;8.636;2023-03-01T04:57:22;101331.19;;;0.58;66.38
25944;BME280;13742;49.306;8.636;2023-03-01T04:58:23;101327.27;;;0.60;66.22
25944;BME280;13742;49.306;8.636;2023-03-01T04:59:22;101327.38;;;0.62;66.00
25944;BME280;13742;49.306;8.636;2023-03-01T05:00:23;101330.69;;;0.64;66.13
25944;BME280;13742;49.306;8.636;2023-03-01T05:01:22;101330.98;;;0.65;66.17
25944;BME280;13742;49.306;8.636;2023-03-01T05:02:22;101333.64;;;0.67;66.32
25944;BME280;13742;49.306;8.636;2023-03-01T05:03:22;101334.50;;;0.64;66.17
25944;BME280;13742;49.306;8.636;2023-03-01T05:04:23;101331.94;;;0.60;66.49
25944;BME280;13742;49.306;8.636;2023-03-01T05:05:26;101332.75;;;0.60;66.22
25944;BME280;13742;49.306;8.636;2023-03-01T05:06:22;101333.69;;;0.56;65.91
25944;BME280;13742;49.306;8.636;2023-03-01T05:07:24;101333.48;;;0.53;66.03
25944;BME280;13742;49.306;8.636;2023-03-01T05:08:22;101331.94;;;0.53;65.93
25944;BME280;13742;49.306;8.636;2023-03-01T05:09:22;101332.98;;;0.52;65.82
25944;BME280;13742;49.306;8.636;2023-03-01T05:10:23;101334.36;;;0.51;66.05
25944;BME280;13742;49.306;8.636;2023-03-01T05:11:22;101331.55;;;0.50;65.99
25944;BME280;13742;49.306;8.636;2023-03-01T05:12:22;101331.43;;;0.47;66.09
25944;BME280;13742;49.306;8.636;2023-03-01T05:13:23;101332.52;;;0.46;66.31
25944;BME280;13742;49.306;8.636;2023-03-01T05:14:22;101332.02;;;0.48;66.13
25944;BME280;13742;49.306;8.636;2023-03-01T05:15:25;101327.38;;;0.48;66.53
25944;BME280;13742;49.306;8.636;2023-03-01T05:16:22;101328.81;;;0.46;65.98
25944;BME280;13742;49.306;8.636;2023-03-01T05:17:23;101329.27;;;0.46;66.07
25944;BME280;13742;49.306;8.636;2023-03-01T05:18:26;101331.33;;;0.45;66.27
25944;BME280;13742;49.306;8.636;2023-03-01T05:19:22;101329.22;;;0.45;66.45
25944;BME280;13742;49.306;8.636;2023-03-01T05:20:22;101326.92;;;0.44;66.25
25944;BME280;13742;49.306;8.636;2023-03-01T05:21:22;101325.81;;;0.43;66.00
25944;BME280;13742;49.306;8.636;2023-03-01T05:22:22;101329.91;;;0.42;66.03
25944;BME280;13742;49.306;8.636;2023-03-01T05:23:22;101331.98;;;0.39;66.26
25944;BME280;13742;49.306;8.636;2023-03-01T05:24:22;101334.30;;;0.39;66.02
25944;BME280;13742;49.306;8.636;2023-03-01T05:25:22;101331.39;;;0.37;66.12
25944;BME280;13742;49.306;8.636;2023-03-01T05:26:27;101332.41;;;0.37;66.64